CheckWX is a tool to help pilots better visualize weather data.  It is not intended as a substitute for an official pre-flight weather briefing.

08:46:09 UTC

EBBE METAR
Beauvechain Air Base Airport
Beauvechain, Belgium
Current

51 mins ago

EBBE 230755Z 08008KT 9999 FEW060 SCT080 BKN200 12/04 Q0998 BLU BLU
Observed
Apr-23 @ 07:55 UTC
Wind
  • 080° at 8 KTS
Visibility
10,000+ meters
Flight Rules
VFR
Cloud Levels
  • Few at 6,000' AGL
  • Scattered at 8,000' AGL
  • Broken at 20,000' AGL
Temperature
12°C / 54°F
Dewpoint
C / 39°F
Humidity
58%
Altimeter
29.47" Hg
Pressure
997.92 hPa
Previous

1 hour ago

EBBE 230725Z 07008KT 9999 SCT060 SCT080 BKN200 12/04 Q0998 BLU BLU
Observed
Apr-23 @ 07:25 UTC
Wind
  • 070° at 8 KTS
Visibility
10,000+ meters
Flight Rules
VFR
Cloud Levels
  • Scattered at 6,000' AGL
  • Scattered at 8,000' AGL
  • Broken at 20,000' AGL
Temperature
12°C / 54°F
Dewpoint
C / 39°F
Humidity
58%
Altimeter
29.47" Hg
Pressure
997.92 hPa
Previous

2 hours ago

EBBE 230655Z 07005KT 9999 SCT060 SCT080 BKN200 11/04 Q0998 BLU BLU
Observed
Apr-23 @ 06:55 UTC
Wind
  • 070° at 5 KTS
Visibility
10,000+ meters
Flight Rules
VFR
Cloud Levels
  • Scattered at 6,000' AGL
  • Scattered at 8,000' AGL
  • Broken at 20,000' AGL
Temperature
11°C / 52°F
Dewpoint
C / 39°F
Humidity
62%
Altimeter
29.47" Hg
Pressure
997.92 hPa